Pagrindinis puslapis
METAR-TAF:

METAR-TAF

Oro uostai :

Koliganek, Aliaska, Jungtinės Amerikos Valstijos

platuma: 59-43-36N, ilguma: 157-15-34W, Aukštis: 82 m

Dabartinis oras

Ataskaita buvo paskelbta 59 minutes, ne 17:56 UTC
Vėjas 4 kt iš Šiaurės/Šiaurės Vakarų
Temperatūra -13°C
Drėgmė 85%
Slėgis 1013 hPa
Matomumas: 0.4 km
Apsiniaukę ne aukštis 300 ft
įšaldymas rūko

METAR: PAJZ 161756Z AUTO 33004KT 1/4SM FZFG OVC003 M13/M15 A2992 RMK AO2 SNB13E25 SLP139 P0000 60000 T11331150 11133 21139 55000 FZRANO $

Laikas: 09:55 (18:55 UTC)


TAF: trūkstamas

Orai ataskaitas ir orų prognozės (METAR, TAF).

turimą stotys yra geltonos ir raudonos taškus žemėlapyje.

Perkelti pele per norėdami pamatyti stoties vardą.

Tada spustelėkite, norėdami matyti oro stebėjimo ir prognozės.

Norėdami pakeisti žemėlapį: spustelėkite ant žalios mygtukų su juodo kryžiaus žemyn,; žalią mygtuką su brūkšneliu, jei norite nutolinti; arba žalių rodyklių gretimoms žemėlapius.


METAR-TAF: